sensor_id;sensor_type;location;lat;lon;timestamp;temperature;humidity
76040;SHT30;64736;50.462;4.850;2023-04-08T00:01:07;7.50;83.84
76040;SHT30;64736;50.462;4.850;2023-04-08T00:03:32;7.50;83.44
76040;SHT30;64736;50.462;4.850;2023-04-08T00:05:58;7.63;83.46
76040;SHT30;64736;50.462;4.850;2023-04-08T00:08:27;7.63;83.60
76040;SHT30;64736;50.462;4.850;2023-04-08T00:10:53;7.67;83.19
76040;SHT30;64736;50.462;4.850;2023-04-08T00:13:18;7.75;82.67
76040;SHT30;64736;50.462;4.850;2023-04-08T00:15:44;7.79;82.70
76040;SHT30;64736;50.462;4.850;2023-04-08T00:18:10;7.85;82.45
76040;SHT30;64736;50.462;4.850;2023-04-08T00:20:36;7.86;82.65
76040;SHT30;64736;50.462;4.850;2023-04-08T00:23:02;7.91;82.26
76040;SHT30;64736;50.462;4.850;2023-04-08T00:25:27;7.93;82.02
76040;SHT30;64736;50.462;4.850;2023-04-08T00:27:53;7.78;83.05
76040;SHT30;64736;50.462;4.850;2023-04-08T00:30:19;7.77;83.05
76040;SHT30;64736;50.462;4.850;2023-04-08T00:32:45;7.82;82.90
76040;SHT30;64736;50.462;4.850;2023-04-08T00:35:11;7.91;82.76
76040;SHT30;64736;50.462;4.850;2023-04-08T00:37:37;7.98;82.29
76040;SHT30;64736;50.462;4.850;2023-04-08T00:40:03;8.06;82.32
76040;SHT30;64736;50.462;4.850;2023-04-08T00:42:29;8.02;81.83
76040;SHT30;64736;50.462;4.850;2023-04-08T00:44:55;7.85;83.05
76040;SHT30;64736;50.462;4.850;2023-04-08T00:47:21;8.01;82.47
76040;SHT30;64736;50.462;4.850;2023-04-08T00:49:47;8.10;81.98
76040;SHT30;64736;50.462;4.850;2023-04-08T00:52:13;8.05;82.12
76040;SHT30;64736;50.462;4.850;2023-04-08T00:54:40;8.05;82.38
76040;SHT30;64736;50.462;4.850;2023-04-08T00:57:06;8.01;82.29
76040;SHT30;64736;50.462;4.850;2023-04-08T00:59:32;8.06;82.02
76040;SHT30;64736;50.462;4.850;2023-04-08T01:05:01;7.96;82.70
76040;SHT30;64736;50.462;4.850;2023-04-08T01:07:40;8.05;82.48
76040;SHT30;64736;50.462;4.850;2023-04-08T01:10:16;7.98;82.60
76040;SHT30;64736;50.462;4.850;2023-04-08T01:12:56;7.89;82.57
76040;SHT30;64736;50.462;4.850;2023-04-08T01:15:26;7.72;83.18
76040;SHT30;64736;50.462;4.850;2023-04-08T01:17:55;7.78;83.38
76040;SHT30;64736;50.462;4.850;2023-04-08T01:20:24;7.84;82.94
76040;SHT30;64736;50.462;4.850;2023-04-08T01:25:32;7.61;83.52
76040;SHT30;64736;50.462;4.850;2023-04-08T01:28:11;7.78;83.13
76040;SHT30;64736;50.462;4.850;2023-04-08T01:30:41;7.75;82.88
76040;SHT30;64736;50.462;4.850;2023-04-08T01:33:13;7.77;82.82
76040;SHT30;64736;50.462;4.850;2023-04-08T01:35:40;7.68;83.08
76040;SHT30;64736;50.462;4.850;2023-04-08T01:38:08;7.64;83.58
76040;SHT30;64736;50.462;4.850;2023-04-08T01:40:37;7.67;83.01
76040;SHT30;64736;50.462;4.850;2023-04-08T01:43:05;7.43;83.68
76040;SHT30;64736;50.462;4.850;2023-04-08T01:45:32;7.54;83.84
76040;SHT30;64736;50.462;4.850;2023-04-08T01:47:59;7.54;83.88
76040;SHT30;64736;50.462;4.850;2023-04-08T01:50:26;7.50;83.85
76040;SHT30;64736;50.462;4.850;2023-04-08T01:52:53;7.54;83.68
76040;SHT30;64736;50.462;4.850;2023-04-08T01:55:20;7.48;83.95
76040;SHT30;64736;50.462;4.850;2023-04-08T01:57:51;7.51;83.76
76040;SHT30;64736;50.462;4.850;2023-04-08T02:00:21;7.51;83.73
76040;SHT30;64736;50.462;4.850;2023-04-08T02:02:51;7.51;83.83
76040;SHT30;64736;50.462;4.850;2023-04-08T02:05:18;7.65;83.34
76040;SHT30;64736;50.462;4.850;2023-04-08T02:07:43;7.63;83.50
76040;SHT30;64736;50.462;4.850;2023-04-08T02:10:11;7.65;83.22
76040;SHT30;64736;50.462;4.850;2023-04-08T02:12:37;7.65;83.50
76040;SHT30;64736;50.462;4.850;2023-04-08T02:15:03;7.68;83.45
76040;SHT30;64736;50.462;4.850;2023-04-08T02:17:46;7.67;83.66
76040;SHT30;64736;50.462;4.850;2023-04-08T02:20:20;7.63;83.53
76040;SHT30;64736;50.462;4.850;2023-04-08T02:22:59;7.53;83.64
76040;SHT30;64736;50.462;4.850;2023-04-08T02:25:28;7.64;83.69
76040;SHT30;64736;50.462;4.850;2023-04-08T02:27:55;7.60;83.34
76040;SHT30;64736;50.462;4.850;2023-04-08T02:30:23;7.55;83.71
76040;SHT30;64736;50.462;4.850;2023-04-08T02:32:51;7.53;84.09
76040;SHT30;64736;50.462;4.850;2023-04-08T02:35:20;7.50;83.97
76040;SHT30;64736;50.462;4.850;2023-04-08T02:37:47;7.64;83.86
76040;SHT30;64736;50.462;4.850;2023-04-08T02:40:27;7.68;83.48
76040;SHT30;64736;50.462;4.850;2023-04-08T02:42:54;7.68;83.57
76040;SHT30;64736;50.462;4.850;2023-04-08T02:45:20;7.72;83.57
76040;SHT30;64736;50.462;4.850;2023-04-08T02:47:46;7.57;83.99
76040;SHT30;64736;50.462;4.850;2023-04-08T02:50:11;7.46;84.46
76040;SHT30;64736;50.462;4.850;2023-04-08T02:52:37;7.65;84.33
76040;SHT30;64736;50.462;4.850;2023-04-08T02:55:04;7.72;82.96
76040;SHT30;64736;50.462;4.850;2023-04-08T02:57:35;7.48;84.31
76040;SHT30;64736;50.462;4.850;2023-04-08T03:00:03;7.19;85.65
76040;SHT30;64736;50.462;4.850;2023-04-08T03:02:29;7.17;85.92
76040;SHT30;64736;50.462;4.850;2023-04-08T03:04:55;7.07;86.47
76040;SHT30;64736;50.462;4.850;2023-04-08T03:07:20;7.12;86.66
76040;SHT30;64736;50.462;4.850;2023-04-08T03:09:46;7.71;84.48
76040;SHT30;64736;50.462;4.850;2023-04-08T03:12:12;7.70;84.26
76040;SHT30;64736;50.462;4.850;2023-04-08T03:14:38;7.44;84.77
76040;SHT30;64736;50.462;4.850;2023-04-08T03:17:04;7.34;85.27
76040;SHT30;64736;50.462;4.850;2023-04-08T03:19:29;7.43;85.45
76040;SHT30;64736;50.462;4.850;2023-04-08T03:21:55;7.38;85.44
76040;SHT30;64736;50.462;4.850;2023-04-08T03:24:21;7.22;86.26
76040;SHT30;64736;50.462;4.850;2023-04-08T03:26:47;7.28;86.21
76040;SHT30;64736;50.462;4.850;2023-04-08T03:29:12;7.65;85.11
76040;SHT30;64736;50.462;4.850;2023-04-08T03:31:38;7.88;83.53
76040;SHT30;64736;50.462;4.850;2023-04-08T03:34:04;7.75;83.40
76040;SHT30;64736;50.462;4.850;2023-04-08T03:36:29;7.51;84.32
76040;SHT30;64736;50.462;4.850;2023-04-08T03:38:55;7.10;86.19
76040;SHT30;64736;50.462;4.850;2023-04-08T03:41:21;7.20;86.61
76040;SHT30;64736;50.462;4.850;2023-04-08T03:43:46;7.30;86.35
76040;SHT30;64736;50.462;4.850;2023-04-08T03:46:12;7.36;86.15
76040;SHT30;64736;50.462;4.850;2023-04-08T03:48:38;7.36;85.88
76040;SHT30;64736;50.462;4.850;2023-04-08T03:51:03;7.42;85.96
76040;SHT30;64736;50.462;4.850;2023-04-08T03:53:29;7.10;86.41
76040;SHT30;64736;50.462;4.850;2023-04-08T03:55:56;6.79;88.03
76040;SHT30;64736;50.462;4.850;2023-04-08T03:58:21;6.74;88.17
76040;SHT30;64736;50.462;4.850;2023-04-08T04:00:47;6.67;88.71
76040;SHT30;64736;50.462;4.850;2023-04-08T04:03:13;6.68;88.47
76040;SHT30;64736;50.462;4.850;2023-04-08T04:05:39;6.64;88.49
76040;SHT30;64736;50.462;4.850;2023-04-08T04:08:05;6.64;88.30
76040;SHT30;64736;50.462;4.850;2023-04-08T04:10:31;6.69;87.82
76040;SHT30;64736;50.462;4.850;2023-04-08T04:12:57;6.69;87.73
76040;SHT30;64736;50.462;4.850;2023-04-08T04:15:22;6.79;87.77
76040;SHT30;64736;50.462;4.850;2023-04-08T04:17:48;7.05;87.00
76040;SHT30;64736;50.462;4.850;2023-04-08T04:20:17;6.88;87.61
76040;SHT30;64736;50.462;4.850;2023-04-08T04:22:43;6.65;88.23
76040;SHT30;64736;50.462;4.850;2023-04-08T04:25:10;6.65;88.22
76040;SHT30;64736;50.462;4.850;2023-04-08T04:27:35;6.69;88.02
76040;SHT30;64736;50.462;4.850;2023-04-08T04:30:02;6.99;87.66
76040;SHT30;64736;50.462;4.850;2023-04-08T04:32:28;7.33;86.25
76040;SHT30;64736;50.462;4.850;2023-04-08T04:34:53;7.26;86.28
76040;SHT30;64736;50.462;4.850;2023-04-08T04:37:19;7.26;86.07
76040;SHT30;64736;50.462;4.850;2023-04-08T04:39:45;7.28;86.03
76040;SHT30;64736;50.462;4.850;2023-04-08T04:42:11;7.20;86.13
76040;SHT30;64736;50.462;4.850;2023-04-08T04:44:37;7.23;86.34
76040;SHT30;64736;50.462;4.850;2023-04-08T04:47:03;7.33;86.00
76040;SHT30;64736;50.462;4.850;2023-04-08T04:49:28;7.34;85.82
76040;SHT30;64736;50.462;4.850;2023-04-08T04:51:54;7.38;85.65
76040;SHT30;64736;50.462;4.850;2023-04-08T04:54:20;7.55;85.59
76040;SHT30;64736;50.462;4.850;2023-04-08T04:56:46;7.96;82.71
76040;SHT30;64736;50.462;4.850;2023-04-08T04:59:12;7.82;83.03
76040;SHT30;64736;50.462;4.850;2023-04-08T05:01:37;7.58;84.12
76040;SHT30;64736;50.462;4.850;2023-04-08T05:04:06;7.46;84.74
76040;SHT30;64736;50.462;4.850;2023-04-08T05:06:32;7.05;86.49
76040;SHT30;64736;50.462;4.850;2023-04-08T05:08:58;7.02;86.80
76040;SHT30;64736;50.462;4.850;2023-04-08T05:11:23;7.27;86.31
76040;SHT30;64736;50.462;4.850;2023-04-08T05:13:49;7.19;85.78
76040;SHT30;64736;50.462;4.850;2023-04-08T05:16:15;7.09;86.17
76040;SHT30;64736;50.462;4.850;2023-04-08T05:18:41;7.22;86.26
76040;SHT30;64736;50.462;4.850;2023-04-08T05:21:07;7.24;86.13
76040;SHT30;64736;50.462;4.850;2023-04-08T05:23:34;7.42;85.95
76040;SHT30;64736;50.462;4.850;2023-04-08T05:26:00;7.06;86.19
76040;SHT30;64736;50.462;4.850;2023-04-08T05:28:26;6.86;87.41
76040;SHT30;64736;50.462;4.850;2023-04-08T05:30:52;7.15;87.17
76040;SHT30;64736;50.462;4.850;2023-04-08T05:33:19;7.61;84.87
76040;SHT30;64736;50.462;4.850;2023-04-08T05:35:45;7.38;85.50
76040;SHT30;64736;50.462;4.850;2023-04-08T05:38:11;7.48;86.07
76040;SHT30;64736;50.462;4.850;2023-04-08T05:40:37;7.77;84.05
76040;SHT30;64736;50.462;4.850;2023-04-08T05:43:03;7.89;83.77
76040;SHT30;64736;50.462;4.850;2023-04-08T05:45:29;7.92;83.79
76040;SHT30;64736;50.462;4.850;2023-04-08T05:47:55;7.92;83.69
76040;SHT30;64736;50.462;4.850;2023-04-08T05:50:21;8.02;83.33
76040;SHT30;64736;50.462;4.850;2023-04-08T05:52:46;7.88;83.73
76040;SHT30;64736;50.462;4.850;2023-04-08T05:55:13;7.88;84.21
76040;SHT30;64736;50.462;4.850;2023-04-08T05:57:39;7.84;84.47
76040;SHT30;64736;50.462;4.850;2023-04-08T06:00:07;7.74;85.06
76040;SHT30;64736;50.462;4.850;2023-04-08T06:02:34;8.05;84.14
76040;SHT30;64736;50.462;4.850;2023-04-08T06:05:01;8.07;83.48
76040;SHT30;64736;50.462;4.850;2023-04-08T06:07:27;7.96;83.53
76040;SHT30;64736;50.462;4.850;2023-04-08T06:09:53;8.01;83.74
76040;SHT30;64736;50.462;4.850;2023-04-08T06:12:18;7.98;84.36
76040;SHT30;64736;50.462;4.850;2023-04-08T06:14:44;7.84;84.71
76040;SHT30;64736;50.462;4.850;2023-04-08T06:17:10;8.13;83.26
76040;SHT30;64736;50.462;4.850;2023-04-08T06:19:36;8.13;83.86
76040;SHT30;64736;50.462;4.850;2023-04-08T06:22:02;8.06;84.30
76040;SHT30;64736;50.462;4.850;2023-04-08T06:24:27;8.17;83.25
76040;SHT30;64736;50.462;4.850;2023-04-08T06:26:54;8.07;84.01
76040;SHT30;64736;50.462;4.850;2023-04-08T06:29:21;7.63;85.38
76040;SHT30;64736;50.462;4.850;2023-04-08T06:31:48;7.38;86.34
76040;SHT30;64736;50.462;4.850;2023-04-08T06:34:13;7.15;87.55
76040;SHT30;64736;50.462;4.850;2023-04-08T06:36:39;7.27;87.30
76040;SHT30;64736;50.462;4.850;2023-04-08T06:39:05;7.98;85.17
76040;SHT30;64736;50.462;4.850;2023-04-08T06:41:31;8.28;83.70
76040;SHT30;64736;50.462;4.850;2023-04-08T06:43:57;8.43;82.89
76040;SHT30;64736;50.462;4.850;2023-04-08T06:46:23;8.43;82.99
76040;SHT30;64736;50.462;4.850;2023-04-08T06:48:49;8.34;83.13
76040;SHT30;64736;50.462;4.850;2023-04-08T06:51:14;8.34;83.27
76040;SHT30;64736;50.462;4.850;2023-04-08T06:53:40;8.36;83.22
76040;SHT30;64736;50.462;4.850;2023-04-08T06:56:06;8.40;83.29
76040;SHT30;64736;50.462;4.850;2023-04-08T06:58:32;8.49;82.90
76040;SHT30;64736;50.462;4.850;2023-04-08T07:00:58;8.50;82.74
76040;SHT30;64736;50.462;4.850;2023-04-08T07:03:24;8.49;82.74
76040;SHT30;64736;50.462;4.850;2023-04-08T07:05:51;8.49;82.98
76040;SHT30;64736;50.462;4.850;2023-04-08T07:08:17;8.54;83.02
76040;SHT30;64736;50.462;4.850;2023-04-08T07:10:43;8.63;82.62
76040;SHT30;64736;50.462;4.850;2023-04-08T07:13:09;8.63;82.82
76040;SHT30;64736;50.462;4.850;2023-04-08T07:15:35;8.68;82.83
76040;SHT30;64736;50.462;4.850;2023-04-08T07:18:01;8.59;83.38
76040;SHT30;64736;50.462;4.850;2023-04-08T07:20:29;8.70;83.02
76040;SHT30;64736;50.462;4.850;2023-04-08T07:22:55;8.65;83.53
76040;SHT30;64736;50.462;4.850;2023-04-08T07:25:21;8.60;83.36
76040;SHT30;64736;50.462;4.850;2023-04-08T07:27:47;8.93;81.97
76040;SHT30;64736;50.462;4.850;2023-04-08T07:30:12;8.92;82.32
76040;SHT30;64736;50.462;4.850;2023-04-08T07:32:38;8.85;82.82
76040;SHT30;64736;50.462;4.850;2023-04-08T07:35:04;8.93;82.23
76040;SHT30;64736;50.462;4.850;2023-04-08T07:37:30;8.43;83.41
76040;SHT30;64736;50.462;4.850;2023-04-08T07:39:56;7.93;86.10
76040;SHT30;64736;50.462;4.850;2023-04-08T07:42:22;8.67;84.14
76040;SHT30;64736;50.462;4.850;2023-04-08T07:44:47;9.01;82.25
76040;SHT30;64736;50.462;4.850;2023-04-08T07:47:13;8.91;82.69
76040;SHT30;64736;50.462;4.850;2023-04-08T07:49:39;9.11;82.02
76040;SHT30;64736;50.462;4.850;2023-04-08T07:52:05;8.97;82.45
76040;SHT30;64736;50.462;4.850;2023-04-08T07:54:31;8.81;83.27
76040;SHT30;64736;50.462;4.850;2023-04-08T07:56:59;8.41;85.05
76040;SHT30;64736;50.462;4.850;2023-04-08T07:59:24;8.77;84.58
76040;SHT30;64736;50.462;4.850;2023-04-08T08:01:50;9.04;82.51
76040;SHT30;64736;50.462;4.850;2023-04-08T08:04:16;9.22;81.81
76040;SHT30;64736;50.462;4.850;2023-04-08T08:06:42;9.29;81.54
76040;SHT30;64736;50.462;4.850;2023-04-08T08:09:08;9.19;81.79
76040;SHT30;64736;50.462;4.850;2023-04-08T08:11:33;9.18;81.67
76040;SHT30;64736;50.462;4.850;2023-04-08T08:13:59;8.92;82.20
76040;SHT30;64736;50.462;4.850;2023-04-08T08:16:29;8.54;84.51
76040;SHT30;64736;50.462;4.850;2023-04-08T08:18:59;8.70;83.61
76040;SHT30;64736;50.462;4.850;2023-04-08T08:21:24;8.92;83.93
76040;SHT30;64736;50.462;4.850;2023-04-08T08:23:51;9.23;82.58
76040;SHT30;64736;50.462;4.850;2023-04-08T08:26:18;9.64;80.70
76040;SHT30;64736;50.462;4.850;2023-04-08T08:28:44;9.66;80.04
76040;SHT30;64736;50.462;4.850;2023-04-08T08:31:10;8.74;82.91
76040;SHT30;64736;50.462;4.850;2023-04-08T08:33:36;8.46;85.02
76040;SHT30;64736;50.462;4.850;2023-04-08T08:36:02;8.88;83.77
76040;SHT30;64736;50.462;4.850;2023-04-08T08:38:29;8.64;84.42
76040;SHT30;64736;50.462;4.850;2023-04-08T08:40:59;9.53;81.37
76040;SHT30;64736;50.462;4.850;2023-04-08T08:43:25;9.81;80.17
76040;SHT30;64736;50.462;4.850;2023-04-08T08:45:52;9.81;79.73
76040;SHT30;64736;50.462;4.850;2023-04-08T08:48:17;9.85;80.02
76040;SHT30;64736;50.462;4.850;2023-04-08T08:50:44;9.97;79.27
76040;SHT30;64736;50.462;4.850;2023-04-08T08:53:10;9.85;79.97
76040;SHT30;64736;50.462;4.850;2023-04-08T08:55:36;8.87;82.47
76040;SHT30;64736;50.462;4.850;2023-04-08T08:58:04;9.48;81.76
76040;SHT30;64736;50.462;4.850;2023-04-08T09:00:39;10.26;78.50
76040;SHT30;64736;50.462;4.850;2023-04-08T09:03:27;10.29;77.80
76040;SHT30;64736;50.462;4.850;2023-04-08T09:05:57;10.46;77.71
76040;SHT30;64736;50.462;4.850;2023-04-08T09:08:36;10.59;76.14
76040;SHT30;64736;50.462;4.850;2023-04-08T09:11:13;10.69;76.44
76040;SHT30;64736;50.462;4.850;2023-04-08T09:13:40;10.67;75.14
76040;SHT30;64736;50.462;4.850;2023-04-08T09:16:11;10.66;75.02
76040;SHT30;64736;50.462;4.850;2023-04-08T09:18:37;10.55;74.82
76040;SHT30;64736;50.462;4.850;2023-04-08T09:21:04;10.52;76.21
76040;SHT30;64736;50.462;4.850;2023-04-08T09:23:43;10.19;76.99
76040;SHT30;64736;50.462;4.850;2023-04-08T09:26:21;10.29;77.76
76040;SHT30;64736;50.462;4.850;2023-04-08T09:29:01;10.04;77.05
76040;SHT30;64736;50.462;4.850;2023-04-08T09:31:30;9.54;77.97
76040;SHT30;64736;50.462;4.850;2023-04-08T09:33:59;9.81;76.35
76040;SHT30;64736;50.462;4.850;2023-04-08T09:36:26;10.04;74.72
76040;SHT30;64736;50.462;4.850;2023-04-08T09:38:53;10.45;73.51
76040;SHT30;64736;50.462;4.850;2023-04-08T09:41:20;10.05;74.78
76040;SHT30;64736;50.462;4.850;2023-04-08T09:43:53;9.70;75.84
76040;SHT30;64736;50.462;4.850;2023-04-08T09:46:28;10.91;73.05
76040;SHT30;64736;50.462;4.850;2023-04-08T09:52:14;10.84;72.73
76040;SHT30;64736;50.462;4.850;2023-04-08T09:55:00;10.79;72.73
76040;SHT30;64736;50.462;4.850;2023-04-08T09:57:54;9.74;75.37
76040;SHT30;64736;50.462;4.850;2023-04-08T10:00:27;9.71;75.52
76040;SHT30;64736;50.462;4.850;2023-04-08T10:05:26;9.78;73.90
76040;SHT30;64736;50.462;4.850;2023-04-08T10:07:55;9.66;73.92
76040;SHT30;64736;50.462;4.850;2023-04-08T10:10:21;9.73;74.37
76040;SHT30;64736;50.462;4.850;2023-04-08T10:12:48;9.76;74.63
76040;SHT30;64736;50.462;4.850;2023-04-08T10:15:30;10.14;72.89
76040;SHT30;64736;50.462;4.850;2023-04-08T10:23:03;10.15;72.98
76040;SHT30;64736;50.462;4.850;2023-04-08T10:25:40;10.74;70.79
76040;SHT30;64736;50.462;4.850;2023-04-08T10:30:52;10.60;72.35
76040;SHT30;64736;50.462;4.850;2023-04-08T10:33:22;10.23;72.12
76040;SHT30;64736;50.462;4.850;2023-04-08T10:38:34;10.93;69.70
76040;SHT30;64736;50.462;4.850;2023-04-08T10:41:00;11.14;70.90
76040;SHT30;64736;50.462;4.850;2023-04-08T10:43:32;10.23;72.01
76040;SHT30;64736;50.462;4.850;2023-04-08T10:45:58;10.39;71.14
76040;SHT30;64736;50.462;4.850;2023-04-08T10:48:25;10.87;69.70
76040;SHT30;64736;50.462;4.850;2023-04-08T10:50:58;10.57;70.82
76040;SHT30;64736;50.462;4.850;2023-04-08T10:53:28;10.84;70.78
76040;SHT30;64736;50.462;4.850;2023-04-08T10:56:07;10.57;71.87
76040;SHT30;64736;50.462;4.850;2023-04-08T10:58:34;10.49;70.77
76040;SHT30;64736;50.462;4.850;2023-04-08T11:01:07;10.89;70.36
76040;SHT30;64736;50.462;4.850;2023-04-08T11:03:34;11.22;69.81
76040;SHT30;64736;50.462;4.850;2023-04-08T11:06:02;10.76;71.25
76040;SHT30;64736;50.462;4.850;2023-04-08T11:08:32;11.12;70.14
76040;SHT30;64736;50.462;4.850;2023-04-08T11:10:58;10.84;70.46
76040;SHT30;64736;50.462;4.850;2023-04-08T11:13:29;10.66;71.09
76040;SHT30;64736;50.462;4.850;2023-04-08T11:15:56;10.50;72.07
76040;SHT30;64736;50.462;4.850;2023-04-08T11:18:22;10.66;72.38
76040;SHT30;64736;50.462;4.850;2023-04-08T11:20:49;10.63;72.46
76040;SHT30;64736;50.462;4.850;2023-04-08T11:23:16;10.45;72.07
76040;SHT30;64736;50.462;4.850;2023-04-08T11:25:43;10.87;71.11
76040;SHT30;64736;50.462;4.850;2023-04-08T11:28:11;11.25;70.53
76040;SHT30;64736;50.462;4.850;2023-04-08T11:30:38;10.63;71.65
76040;SHT30;64736;50.462;4.850;2023-04-08T11:33:08;11.32;69.72
76040;SHT30;64736;50.462;4.850;2023-04-08T11:35:39;11.27;69.91
76040;SHT30;64736;50.462;4.850;2023-04-08T11:38:05;10.80;71.71
76040;SHT30;64736;50.462;4.850;2023-04-08T11:40:32;10.62;71.97
76040;SHT30;64736;50.462;4.850;2023-04-08T11:42:58;10.91;71.63
76040;SHT30;64736;50.462;4.850;2023-04-08T11:45:24;10.89;70.90
76040;SHT30;64736;50.462;4.850;2023-04-08T11:47:50;11.22;70.33
76040;SHT30;64736;50.462;4.850;2023-04-08T11:50:22;11.21;70.45
76040;SHT30;64736;50.462;4.850;2023-04-08T11:52:49;10.85;72.74
76040;SHT30;64736;50.462;4.850;2023-04-08T11:55:29;11.00;72.20
76040;SHT30;64736;50.462;4.850;2023-04-08T11:58:02;10.98;72.74
76040;SHT30;64736;50.462;4.850;2023-04-08T12:00:28;10.79;72.36
76040;SHT30;64736;50.462;4.850;2023-04-08T12:02:54;10.84;72.03
76040;SHT30;64736;50.462;4.850;2023-04-08T12:05:19;10.91;71.46
76040;SHT30;64736;50.462;4.850;2023-04-08T12:07:46;10.67;72.67
76040;SHT30;64736;50.462;4.850;2023-04-08T12:10:12;10.73;72.26
76040;SHT30;64736;50.462;4.850;2023-04-08T12:12:38;10.79;72.38
76040;SHT30;64736;50.462;4.850;2023-04-08T12:15:05;10.84;71.70
76040;SHT30;64736;50.462;4.850;2023-04-08T12:17:32;10.93;71.52
76040;SHT30;64736;50.462;4.850;2023-04-08T12:19:58;10.81;71.08
76040;SHT30;64736;50.462;4.850;2023-04-08T12:22:23;10.91;70.88
76040;SHT30;64736;50.462;4.850;2023-04-08T12:24:49;11.66;69.59
76040;SHT30;64736;50.462;4.850;2023-04-08T12:27:14;11.42;69.28
76040;SHT30;64736;50.462;4.850;2023-04-08T12:29:40;10.89;70.27
76040;SHT30;64736;50.462;4.850;2023-04-08T12:32:06;11.12;69.78
76040;SHT30;64736;50.462;4.850;2023-04-08T12:34:32;11.15;69.38
76040;SHT30;64736;50.462;4.850;2023-04-08T12:36:58;11.43;67.98
76040;SHT30;64736;50.462;4.850;2023-04-08T12:39:24;12.13;66.68
76040;SHT30;64736;50.462;4.850;2023-04-08T12:41:50;11.63;68.31
76040;SHT30;64736;50.462;4.850;2023-04-08T12:44:16;12.76;64.83
76040;SHT30;64736;50.462;4.850;2023-04-08T12:46:41;12.18;65.53
76040;SHT30;64736;50.462;4.850;2023-04-08T12:49:07;11.77;66.83
76040;SHT30;64736;50.462;4.850;2023-04-08T12:51:34;11.91;67.56
76040;SHT30;64736;50.462;4.850;2023-04-08T12:54:03;11.59;68.61
76040;SHT30;64736;50.462;4.850;2023-04-08T12:56:30;12.38;66.80
76040;SHT30;64736;50.462;4.850;2023-04-08T12:58:57;12.78;65.95
76040;SHT30;64736;50.462;4.850;2023-04-08T13:01:23;13.53;61.67
76040;SHT30;64736;50.462;4.850;2023-04-08T13:03:49;12.18;65.24
76040;SHT30;64736;50.462;4.850;2023-04-08T13:06:15;11.79;67.39
76040;SHT30;64736;50.462;4.850;2023-04-08T13:08:41;12.03;67.28
76040;SHT30;64736;50.462;4.850;2023-04-08T13:11:07;12.14;67.05
76040;SHT30;64736;50.462;4.850;2023-04-08T13:13:34;11.91;67.00
76040;SHT30;64736;50.462;4.850;2023-04-08T13:16:00;12.88;64.95
76040;SHT30;64736;50.462;4.850;2023-04-08T13:18:25;13.02;62.66
76040;SHT30;64736;50.462;4.850;2023-04-08T13:20:52;13.04;63.40
76040;SHT30;64736;50.462;4.850;2023-04-08T13:23:19;14.50;59.15
76040;SHT30;64736;50.462;4.850;2023-04-08T13:25:45;14.81;58.07
76040;SHT30;64736;50.462;4.850;2023-04-08T13:28:11;14.27;58.64
76040;SHT30;64736;50.462;4.850;2023-04-08T13:30:37;13.99;60.79
76040;SHT30;64736;50.462;4.850;2023-04-08T13:33:03;13.41;59.91
76040;SHT30;64736;50.462;4.850;2023-04-08T13:35:29;13.00;60.82
76040;SHT30;64736;50.462;4.850;2023-04-08T13:37:54;13.64;61.43
76040;SHT30;64736;50.462;4.850;2023-04-08T13:40:20;13.09;62.47
76040;SHT30;64736;50.462;4.850;2023-04-08T13:42:46;13.00;62.63
76040;SHT30;64736;50.462;4.850;2023-04-08T13:45:13;13.03;62.95
76040;SHT30;64736;50.462;4.850;2023-04-08T13:47:39;13.65;61.16
76040;SHT30;64736;50.462;4.850;2023-04-08T13:50:08;16.18;53.24
76040;SHT30;64736;50.462;4.850;2023-04-08T13:52:34;14.88;57.43
76040;SHT30;64736;50.462;4.850;2023-04-08T13:54:59;14.77;57.18
76040;SHT30;64736;50.462;4.850;2023-04-08T13:57:25;16.19;54.05
76040;SHT30;64736;50.462;4.850;2023-04-08T13:59:51;15.91;53.49
76040;SHT30;64736;50.462;4.850;2023-04-08T14:02:17;14.60;57.18
76040;SHT30;64736;50.462;4.850;2023-04-08T14:04:42;13.89;59.54
76040;SHT30;64736;50.462;4.850;2023-04-08T14:07:12;14.12;58.74
76040;SHT30;64736;50.462;4.850;2023-04-08T14:09:38;13.50;59.56
76040;SHT30;64736;50.462;4.850;2023-04-08T14:12:04;13.40;60.65
76040;SHT30;64736;50.462;4.850;2023-04-08T14:14:30;13.44;59.95
76040;SHT30;64736;50.462;4.850;2023-04-08T14:16:55;13.17;60.85
76040;SHT30;64736;50.462;4.850;2023-04-08T14:19:21;13.02;60.99
76040;SHT30;64736;50.462;4.850;2023-04-08T14:21:47;13.16;61.01
76040;SHT30;64736;50.462;4.850;2023-04-08T14:24:13;13.14;61.48
76040;SHT30;64736;50.462;4.850;2023-04-08T14:26:38;13.34;60.64
76040;SHT30;64736;50.462;4.850;2023-04-08T14:29:05;13.31;60.58
76040;SHT30;64736;50.462;4.850;2023-04-08T14:31:32;13.65;59.99
76040;SHT30;64736;50.462;4.850;2023-04-08T14:33:58;13.30;59.39
76040;SHT30;64736;50.462;4.850;2023-04-08T14:36:25;13.53;59.61
76040;SHT30;64736;50.462;4.850;2023-04-08T14:38:52;13.69;60.04
76040;SHT30;64736;50.462;4.850;2023-04-08T14:41:18;13.57;59.18
76040;SHT30;64736;50.462;4.850;2023-04-08T14:43:44;13.95;57.81
76040;SHT30;64736;50.462;4.850;2023-04-08T14:46:10;14.82;55.69
76040;SHT30;64736;50.462;4.850;2023-04-08T14:48:35;14.06;57.69
76040;SHT30;64736;50.462;4.850;2023-04-08T14:51:01;14.37;57.34
76040;SHT30;64736;50.462;4.850;2023-04-08T14:53:27;16.44;52.27
76040;SHT30;64736;50.462;4.850;2023-04-08T14:55:53;16.95;51.10
76040;SHT30;64736;50.462;4.850;2023-04-08T14:58:18;15.36;52.70
76040;SHT30;64736;50.462;4.850;2023-04-08T15:00:44;13.61;57.70
76040;SHT30;64736;50.462;4.850;2023-04-08T15:03:15;13.85;57.54
76040;SHT30;64736;50.462;4.850;2023-04-08T15:05:42;13.71;58.46
76040;SHT30;64736;50.462;4.850;2023-04-08T15:08:08;13.79;58.74
76040;SHT30;64736;50.462;4.850;2023-04-08T15:10:33;13.27;59.73
76040;SHT30;64736;50.462;4.850;2023-04-08T15:13:00;12.96;60.08
76040;SHT30;64736;50.462;4.850;2023-04-08T15:15:26;13.13;59.99
76040;SHT30;64736;50.462;4.850;2023-04-08T15:17:51;13.11;60.07
76040;SHT30;64736;50.462;4.850;2023-04-08T15:20:17;13.28;59.46
76040;SHT30;64736;50.462;4.850;2023-04-08T15:22:44;13.04;58.91
76040;SHT30;64736;50.462;4.850;2023-04-08T15:25:11;12.79;59.61
76040;SHT30;64736;50.462;4.850;2023-04-08T15:27:38;13.04;59.93
76040;SHT30;64736;50.462;4.850;2023-04-08T15:30:06;13.02;60.53
76040;SHT30;64736;50.462;4.850;2023-04-08T15:32:32;13.10;61.01
76040;SHT30;64736;50.462;4.850;2023-04-08T15:34:59;12.85;62.42
76040;SHT30;64736;50.462;4.850;2023-04-08T15:37:24;12.92;62.75
76040;SHT30;64736;50.462;4.850;2023-04-08T15:39:50;13.13;62.89
76040;SHT30;64736;50.462;4.850;2023-04-08T15:42:20;12.92;64.10
76040;SHT30;64736;50.462;4.850;2023-04-08T15:44:46;12.73;64.84
76040;SHT30;64736;50.462;4.850;2023-04-08T15:47:12;12.73;64.76
76040;SHT30;64736;50.462;4.850;2023-04-08T15:49:39;12.83;64.75
76040;SHT30;64736;50.462;4.850;2023-04-08T15:52:05;12.82;64.44
76040;SHT30;64736;50.462;4.850;2023-04-08T15:54:34;12.86;63.86
76040;SHT30;64736;50.462;4.850;2023-04-08T15:56:59;12.69;63.24
76040;SHT30;64736;50.462;4.850;2023-04-08T15:59:30;12.76;62.85
76040;SHT30;64736;50.462;4.850;2023-04-08T16:01:55;12.73;62.98